Time;durP1;ratioP1;P1;durP2;ratioP2;P2;SDS_P1;SDS_P2;PMS_P1;PMS_P2;Temp;Humidity;BMP_temperature;BMP_pressure;BME280_temperature;BME280_humidity;BME280_pressure;Samples;Min_cycle;Max_cycle;Signal;HPM_P1;HPM_P2
2021/09/15 00:01:55;;;;;;;4.60;3.95;;;23.00;96.70;;;;;;4977601;28;20203;-75
2021/09/15 00:04:45;;;;;;;5.45;4.28;;;23.00;96.70;;;;;;4965685;28;20083;-75
2021/09/15 00:07:13;;;;;;;7.15;4.43;;;22.90;96.70;;;;;;4964762;28;20047;-75
2021/09/15 00:09:41;;;;;;;6.13;4.55;;;22.80;96.70;;;;;;4959946;28;20069;-75
2021/09/15 00:12:10;;;;;;;6.90;4.30;;;22.70;96.70;;;;;;4961528;28;20043;-75
2021/09/15 00:14:38;;;;;;;4.30;3.90;;;22.70;96.70;;;;;;4963701;28;20054;-75
2021/09/15 00:17:08;;;;;;;5.70;3.83;;;22.70;96.70;;;;;;4962559;28;20126;-75
2021/09/15 00:19:37;;;;;;;4.53;3.72;;;22.80;96.70;;;;;;4960675;28;21936;-75
2021/09/15 00:22:06;;;;;;;5.28;4.00;;;22.70;96.70;;;;;;4964396;28;20050;-75
2021/09/15 00:24:36;;;;;;;5.30;3.70;;;22.70;96.70;;;;;;4962397;28;20051;-75
2021/09/15 00:27:05;;;;;;;4.53;4.00;;;22.70;96.70;;;;;;4977461;28;20043;-75
2021/09/15 00:29:38;;;;;;;5.07;3.80;;;22.60;96.70;;;;;;4961878;28;20118;-75
2021/09/15 00:32:09;;;;;;;4.32;3.88;;;22.60;96.70;;;;;;4962399;28;20039;-75
2021/09/15 00:34:39;;;;;;;5.88;3.97;;;22.60;96.70;;;;;;4964891;28;20069;-75
2021/09/15 00:37:09;;;;;;;5.45;4.00;;;22.60;96.70;;;;;;4962316;28;20581;-75
2021/09/15 00:39:38;;;;;;;6.43;4.22;;;22.60;96.70;;;;;;4963282;28;20039;-75
2021/09/15 00:42:08;;;;;;;5.85;4.20;;;22.60;96.70;;;;;;4965626;28;20173;-75
2021/09/15 00:44:36;;;;;;;5.20;4.50;;;22.60;96.70;;;;;;4963184;28;20091;-75
2021/09/15 00:47:12;;;;;;;5.38;4.18;;;22.70;96.70;;;;;;4960752;28;20043;-75
2021/09/15 00:49:41;;;;;;;5.03;4.03;;;22.70;96.70;;;;;;4971419;28;20449;-75
2021/09/15 00:52:25;;;;;;;6.60;4.30;;;22.60;96.70;;;;;;4961499;28;20386;-75
2021/09/15 00:54:54;;;;;;;5.32;4.88;;;22.70;96.70;;;;;;4959316;28;20042;-75
2021/09/15 00:57:24;;;;;;;6.30;5.70;;;22.70;96.70;;;;;;4961877;28;20039;-75
2021/09/15 00:59:53;;;;;;;7.65;4.65;;;22.70;96.70;;;;;;4962070;28;20122;-75
2021/09/15 01:03:11;;;;;;;6.68;5.00;;;22.70;96.70;;;;;;4963510;28;20043;-74
2021/09/15 01:05:42;;;;;;;;;;;22.70;96.70;;;;;;4943137;28;20051;-75
2021/09/15 01:08:13;;;;;;;7.07;4.88;;;22.70;96.70;;;;;;4959699;28;19933;-75
2021/09/15 01:10:43;;;;;;;6.97;4.57;;;22.70;96.70;;;;;;4973462;28;20039;-75
2021/09/15 01:13:27;;;;;;;6.22;4.88;;;22.70;96.70;;;;;;4955891;28;20043;-75
2021/09/15 01:16:25;;;;;;;6.65;4.72;;;22.70;96.70;;;;;;4949812;28;20141;-75
2021/09/15 01:19:06;;;;;;;5.97;4.95;;;22.70;96.70;;;;;;4964954;28;20070;-76
2021/09/15 01:22:02;;;;;;;6.85;4.90;;;22.60;96.70;;;;;;4963009;28;20079;-75
2021/09/15 01:24:49;;;;;;;6.15;4.40;;;22.60;96.70;;;;;;4961558;28;20456;-75
2021/09/15 01:27:35;;;;;;;6.78;4.47;;;22.70;96.70;;;;;;4965865;28;20042;-75
2021/09/15 01:30:22;;;;;;;8.50;4.60;;;22.60;96.70;;;;;;4959993;28;20599;-75
2021/09/15 01:32:53;;;;;;;8.77;4.70;;;22.50;96.70;;;;;;4961457;28;20125;-75
2021/09/15 01:35:23;;;;;;;7.63;5.20;;;22.50;96.70;;;;;;4961777;28;20485;-75
2021/09/15 01:37:55;;;;;;;7.53;4.82;;;22.60;96.70;;;;;;4964634;28;20038;-75
2021/09/15 01:40:39;;;;;;;7.60;4.55;;;22.50;96.70;;;;;;4961864;28;20093;-75
2021/09/15 01:43:09;;;;;;;5.95;4.32;;;22.50;96.70;;;;;;4963260;28;20130;-75
2021/09/15 01:45:40;;;;;;;7.22;4.78;;;22.50;96.70;;;;;;4959606;28;20504;-75
2021/09/15 01:48:18;;;;;;;5.78;4.85;;;22.50;96.70;;;;;;4962992;28;20133;-75
2021/09/15 01:50:56;;;;;;;5.38;4.22;;;22.40;96.70;;;;;;4961938;28;20145;-75
2021/09/15 01:53:26;;;;;;;7.38;4.80;;;22.40;96.70;;;;;;4960312;28;20051;-75
2021/09/15 01:55:56;;;;;;;4.95;4.45;;;22.30;96.70;;;;;;4960306;28;20055;-75
2021/09/15 01:58:32;;;;;;;7.05;5.03;;;22.30;96.70;;;;;;4964723;28;20059;-75
2021/09/15 02:01:13;;;;;;;7.90;4.45;;;22.30;96.70;;;;;;4960846;28;20129;-75
2021/09/15 02:03:57;;;;;;;6.10;4.88;;;22.20;96.70;;;;;;4961988;28;20043;-75
2021/09/15 02:07:00;;;;;;;7.85;4.78;;;22.40;96.70;;;;;;4965496;28;20086;-75
2021/09/15 02:09:49;;;;;;;5.63;5.07;;;22.40;96.70;;;;;;4953781;28;20142;-75
2021/09/15 02:12:23;;;;;;;4.90;4.05;;;22.50;96.70;;;;;;4955851;28;20513;-75
2021/09/15 02:14:51;;;;;;;5.47;4.97;;;22.50;96.70;;;;;;4973493;28;20070;-75
2021/09/15 02:17:20;;;;;;;5.85;4.85;;;22.30;96.70;;;;;;4977937;28;20092;-76
2021/09/15 02:19:53;;;;;;;7.28;4.53;;;22.20;96.70;;;;;;4966140;28;20055;-75
2021/09/15 02:22:44;;;;;;;7.32;4.53;;;22.20;96.70;;;;;;4960970;28;20066;-75
2021/09/15 02:25:36;;;;;;;6.82;4.40;;;22.20;96.70;;;;;;4961175;28;20043;-75
2021/09/15 02:28:26;;;;;;;5.95;4.68;;;22.30;96.70;;;;;;4938195;28;20039;-75
2021/09/15 02:31:20;;;;;;;5.38;4.15;;;22.20;96.70;;;;;;4960823;28;20054;-75
2021/09/15 02:34:18;;;;;;;6.70;4.75;;;22.30;96.70;;;;;;4957447;28;20043;-75
2021/09/15 02:41:25;;;;;;;5.78;4.68;;;22.20;96.70;;;;;;4959533;28;20050;-75
2021/09/15 02:44:12;;;;;;;6.05;4.93;;;22.10;96.70;;;;;;4961622;28;20229;-76
2021/09/15 02:47:03;;;;;;;5.53;4.63;;;22.10;96.70;;;;;;4952247;28;20058;-75
2021/09/15 02:49:58;;;;;;;5.18;4.63;;;22.00;96.70;;;;;;4956255;28;20039;-75
2021/09/15 02:52:54;;;;;;;8.65;4.97;;;22.20;96.70;;;;;;4949189;28;20194;-75
2021/09/15 02:55:46;;;;;;;6.63;5.22;;;22.10;96.70;;;;;;4951812;28;20050;-75
2021/09/15 03:02:41;;;;;;;6.53;5.30;;;22.00;96.70;;;;;;4959659;28;20057;-75
2021/09/15 03:05:30;;;;;;;7.15;5.68;;;22.00;96.70;;;;;;4944671;28;20059;-75
2021/09/15 03:08:19;;;;;;;7.80;4.90;;;21.90;96.70;;;;;;4941163;28;20165;-76
2021/09/15 03:10:49;;;;;;;8.23;5.63;;;21.90;96.70;;;;;;4959723;28;20051;-75
2021/09/15 03:13:18;;;;;;;7.05;6.13;;;21.90;96.70;;;;;;4930407;28;20090;-75
2021/09/15 03:16:34;;;;;;;7.00;5.72;;;21.90;96.70;;;;;;4941718;28;21043;-75
2021/09/15 03:19:09;;;;;;;9.60;5.82;;;21.90;96.70;;;;;;4935771;28;20107;-75
2021/09/15 03:22:01;;;;;;;6.22;5.65;;;21.90;96.70;;;;;;4942437;28;20848;-75
2021/09/15 03:24:31;;;;;;;7.03;6.32;;;21.90;96.70;;;;;;4939108;28;20047;-75
2021/09/15 03:27:14;;;;;;;7.20;6.22;;;21.90;96.70;;;;;;4939780;28;20050;-75
2021/09/15 03:29:42;;;;;;;7.53;5.93;;;21.90;96.70;;;;;;4938438;28;20677;-75
2021/09/15 03:32:32;;;;;;;6.35;5.70;;;21.90;96.70;;;;;;4962577;28;20051;-75
2021/09/15 03:35:03;;;;;;;7.05;5.40;;;22.00;96.70;;;;;;4939595;28;20559;-75
2021/09/15 03:37:32;;;;;;;8.85;4.90;;;22.00;96.70;;;;;;4944212;28;20146;-75
2021/09/15 03:40:00;;;;;;;6.90;4.80;;;22.00;96.70;;;;;;4924999;28;20082;-76
2021/09/15 03:42:30;;;;;;;5.30;4.57;;;21.90;96.70;;;;;;4947162;28;20055;-75
2021/09/15 03:44:58;;;;;;;6.30;4.60;;;21.90;96.70;;;;;;4963958;28;20138;-75
2021/09/15 03:47:27;;;;;;;7.18;5.32;;;21.90;96.70;;;;;;4965264;28;20043;-75
2021/09/15 03:49:55;;;;;;;5.72;4.50;;;21.90;96.70;;;;;;4962367;28;20070;-75
2021/09/15 03:52:25;;;;;;;6.75;4.15;;;21.90;96.70;;;;;;4965307;28;20057;-75
2021/09/15 03:54:55;;;;;;;4.72;4.28;;;21.90;96.70;;;;;;4960233;28;20054;-75
2021/09/15 03:57:24;;;;;;;5.82;4.60;;;21.90;96.70;;;;;;4965693;28;20090;-76
2021/09/15 03:59:52;;;;;;;5.75;4.07;;;21.90;96.70;;;;;;4967281;28;20486;-75
2021/09/15 04:02:21;;;;;;;5.28;4.47;;;21.80;96.70;;;;;;4962920;28;20111;-76
2021/09/15 04:04:50;;;;;;;5.50;4.45;;;21.90;96.70;;;;;;4957577;28;20051;-75
2021/09/15 04:07:18;;;;;;;6.07;3.72;;;22.00;96.70;;;;;;4960328;28;20039;-75
2021/09/15 04:09:48;;;;;;;7.25;4.15;;;21.90;96.70;;;;;;4964463;28;20565;-75
2021/09/15 04:12:17;;;;;;;5.43;4.07;;;21.90;96.70;;;;;;4947679;28;20105;-75
2021/09/15 04:14:45;;;;;;;4.88;4.28;;;21.80;96.70;;;;;;4960197;28;20131;-75
2021/09/15 04:17:14;;;;;;;5.13;4.18;;;21.60;96.70;;;;;;4939391;28;20049;-75
2021/09/15 04:19:42;;;;;;;6.50;4.40;;;21.60;96.70;;;;;;4963602;28;20406;-75
2021/09/15 04:22:17;;;;;;;6.50;4.57;;;21.70;96.70;;;;;;4961656;28;20046;-75
2021/09/15 04:33:26;;;;;;;4.50;3.47;;;21.40;96.70;;;;;;4982235;28;19932;-75
2021/09/15 04:35:55;;;;;;;4.20;3.50;;;21.40;96.70;;;;;;4948406;28;20050;-75
2021/09/15 04:38:23;;;;;;;6.80;3.70;;;21.40;96.70;;;;;;4956100;28;20043;-75
2021/09/15 04:40:52;;;;;;;6.55;3.15;;;21.40;96.70;;;;;;4963387;28;20403;-76
2021/09/15 04:43:22;;;;;;;4.90;3.20;;;21.40;96.70;;;;;;4945554;28;20047;-75
2021/09/15 04:45:51;;;;;;;4.70;3.80;;;21.50;96.70;;;;;;4944767;28;20059;-75
2021/09/15 04:48:21;;;;;;;9.07;4.00;;;21.50;96.70;;;;;;4960870;28;20516;-75
2021/09/15 04:50:50;;;;;;;6.85;3.78;;;21.50;96.70;;;;;;4964226;28;20077;-75
2021/09/15 04:53:19;;;;;;;3.92;3.58;;;21.50;96.70;;;;;;4958673;28;20414;-76
2021/09/15 04:55:48;;;;;;;4.72;3.72;;;21.60;96.70;;;;;;4964682;28;20089;-75
2021/09/15 04:58:17;;;;;;;5.78;4.57;;;21.50;96.70;;;;;;4976712;28;20074;-75
2021/09/15 05:00:50;;;;;;;4.07;3.20;;;21.40;96.70;;;;;;4961306;28;20149;-75
2021/09/15 05:03:18;;;;;;;5.80;3.72;;;21.50;96.70;;;;;;4964957;28;20058;-75
2021/09/15 05:05:47;;;;;;;8.07;4.35;;;21.60;96.70;;;;;;4961538;28;20121;-74
2021/09/15 05:08:19;;;;;;;5.18;4.25;;;21.60;96.70;;;;;;4960146;28;20054;-74
2021/09/15 05:10:48;;;;;;;6.18;4.00;;;21.60;96.70;;;;;;4949761;28;20120;-75
2021/09/15 05:13:19;;;;;;;4.90;4.15;;;21.50;96.70;;;;;;4960790;28;20447;-75
2021/09/15 05:15:50;;;;;;;5.78;3.83;;;21.50;96.70;;;;;;4960580;28;20055;-75
2021/09/15 05:18:18;;;;;;;6.90;4.53;;;21.40;96.70;;;;;;4963383;28;20131;-75
2021/09/15 05:20:46;;;;;;;8.13;3.80;;;21.30;96.70;;;;;;4959792;28;20054;-75
2021/09/15 05:23:15;;;;;;;5.57;4.20;;;21.30;96.70;;;;;;4991848;28;20058;-75
2021/09/15 05:25:46;;;;;;;13.75;4.47;;;21.30;96.70;;;;;;4962029;28;20046;-75
2021/09/15 05:28:15;;;;;;;8.40;4.72;;;21.40;96.70;;;;;;4961680;28;20047;-75
2021/09/15 05:30:43;;;;;;;5.25;4.22;;;21.40;96.70;;;;;;4959864;28;20039;-75
2021/09/15 05:33:13;;;;;;;5.18;3.88;;;21.40;96.70;;;;;;4962653;28;20053;-75
2021/09/15 05:35:42;;;;;;;3.97;3.42;;;21.40;96.70;;;;;;4939938;28;20051;-74
2021/09/15 05:38:11;;;;;;;6.38;3.92;;;21.40;96.70;;;;;;4964439;28;20047;-75
2021/09/15 05:40:57;;;;;;;9.60;4.40;;;21.40;96.70;;;;;;4961412;28;20062;-75
2021/09/15 05:43:26;;;;;;;4.95;3.95;;;21.40;96.70;;;;;;4962548;28;20556;-75
2021/09/15 05:45:54;;;;;;;6.28;4.38;;;21.50;96.70;;;;;;4943093;28;20046;-74
2021/09/15 05:48:24;;;;;;;11.20;4.90;;;21.50;96.70;;;;;;4963380;28;20047;-75
2021/09/15 05:50:53;;;;;;;5.78;3.85;;;21.60;96.70;;;;;;4959832;28;20424;-74
2021/09/15 05:53:22;;;;;;;7.50;3.95;;;21.70;96.70;;;;;;4939189;28;20051;-75
2021/09/15 05:55:51;;;;;;;8.43;4.45;;;21.80;96.70;;;;;;4939911;28;20048;-75
2021/09/15 05:58:20;;;;;;;5.90;4.00;;;21.80;96.70;;;;;;4944483;28;20396;-75
2021/09/15 06:00:49;;;;;;;6.43;3.78;;;21.90;96.70;;;;;;4939681;28;20051;-75
2021/09/15 06:03:19;;;;;;;7.60;4.13;;;21.90;96.70;;;;;;4952876;28;20098;-75
2021/09/15 06:06:08;;;;;;;6.20;4.22;;;21.90;96.70;;;;;;4942124;28;20051;-74
2021/09/15 06:08:38;;;;;;;7.00;4.70;;;21.90;96.70;;;;;;4943137;28;20406;-75
2021/09/15 06:11:06;;;;;;;8.90;5.45;;;21.90;96.70;;;;;;4942644;28;20046;-75
2021/09/15 06:13:35;;;;;;;9.20;5.53;;;21.90;96.70;;;;;;4940408;28;20054;-74
2021/09/15 06:16:06;;;;;;;8.82;5.72;;;21.80;96.70;;;;;;4942037;28;20407;-75
2021/09/15 06:18:37;;;;;;;10.93;5.40;;;21.70;96.70;;;;;;4941056;28;20067;-75
2021/09/15 06:21:36;;;;;;;8.98;4.80;;;21.70;96.70;;;;;;4942493;28;20043;-75
2021/09/15 06:24:33;;;;;;;8.68;4.45;;;21.70;96.70;;;;;;4939415;28;20043;-75
2021/09/15 06:27:02;;;;;;;9.27;4.88;;;21.70;96.70;;;;;;4944209;28;20059;-75
2021/09/15 06:29:30;;;;;;;12.48;4.28;;;21.70;96.70;;;;;;4942396;28;20485;-75
2021/09/15 06:31:59;;;;;;;5.03;4.15;;;21.70;96.70;;;;;;4935873;28;20035;-75
2021/09/15 06:34:28;;;;;;;8.48;4.70;;;21.70;96.70;;;;;;4941191;28;20118;-74
2021/09/15 06:36:58;;;;;;;9.13;4.30;;;21.90;96.70;;;;;;4936325;28;20414;-75
2021/09/15 06:39:26;;;;;;;6.32;4.10;;;21.90;96.70;;;;;;4935215;28;20082;-75
2021/09/15 06:41:54;;;;;;;6.32;4.10;;;22.00;96.70;;;;;;4935313;28;20044;-75
2021/09/15 06:44:23;;;;;;;5.70;4.43;;;22.10;96.70;;;;;;4941873;28;20062;-75
2021/09/15 06:46:52;;;;;;;6.95;4.03;;;22.10;96.70;;;;;;4943151;28;20504;-75
2021/09/15 06:49:21;;;;;;;5.60;4.05;;;22.10;96.70;;;;;;4942836;28;20410;-75
2021/09/15 06:51:49;;;;;;;7.55;4.13;;;22.20;96.70;;;;;;4947427;28;20051;-75
2021/09/15 06:54:18;;;;;;;4.95;3.97;;;22.30;96.70;;;;;;4959451;28;20039;-75
2021/09/15 06:56:48;;;;;;;13.60;4.75;;;22.40;96.70;;;;;;4963813;28;20123;-75
2021/09/15 06:59:16;;;;;;;6.40;4.20;;;22.40;96.70;;;;;;4962032;28;20038;-74
2021/09/15 07:01:45;;;;;;;5.40;3.65;;;22.50;96.70;;;;;;4958576;28;20835;-75
2021/09/15 07:04:14;;;;;;;7.60;3.90;;;22.60;96.70;;;;;;4969239;28;20133;-75
2021/09/15 07:06:43;;;;;;;6.40;4.28;;;22.60;96.70;;;;;;4954903;28;20043;-75
2021/09/15 07:09:11;;;;;;;7.75;3.75;;;22.80;96.70;;;;;;4967160;28;20053;-75
2021/09/15 07:11:41;;;;;;;6.53;4.20;;;22.90;96.70;;;;;;4963286;28;20078;-75
2021/09/15 07:14:09;;;;;;;5.85;3.90;;;23.00;96.70;;;;;;4972276;28;20462;-75
2021/09/15 07:16:38;;;;;;;5.68;3.80;;;23.10;96.70;;;;;;4968517;28;20047;-75
2021/09/15 07:19:06;;;;;;;6.60;3.53;;;23.20;96.70;;;;;;4963520;28;20564;-75
2021/09/15 07:21:35;;;;;;;10.80;4.30;;;23.20;96.70;;;;;;4960806;28;20397;-75
2021/09/15 07:24:03;;;;;;;4.88;3.60;;;23.30;96.70;;;;;;4965896;28;20143;-75
2021/09/15 07:26:32;;;;;;;6.82;3.80;;;23.30;96.70;;;;;;4962206;28;20050;-75
2021/09/15 07:29:01;;;;;;;7.18;3.92;;;23.30;96.70;;;;;;4965381;28;20129;-75
2021/09/15 07:31:35;;;;;;;7.43;4.38;;;23.30;96.70;;;;;;4958159;28;20596;-74
2021/09/15 07:34:04;;;;;;;7.25;4.93;;;23.30;96.70;;;;;;4966224;28;20070;-74
2021/09/15 07:36:32;;;;;;;5.97;4.15;;;23.30;96.70;;;;;;4962557;28;20402;-75
2021/09/15 07:39:00;;;;;;;7.53;4.10;;;23.30;96.70;;;;;;4963650;28;20043;-75
2021/09/15 07:41:28;;;;;;;5.22;3.60;;;23.40;96.70;;;;;;4963922;28;20488;-75
2021/09/15 07:43:56;;;;;;;8.02;4.20;;;23.50;96.70;;;;;;4960133;28;20568;-75
2021/09/15 07:46:26;;;;;;;5.07;3.95;;;23.50;96.70;;;;;;4958339;28;20043;-75
2021/09/15 07:48:54;;;;;;;5.75;3.75;;;23.50;96.70;;;;;;4972059;28;20142;-75
2021/09/15 07:51:23;;;;;;;9.82;4.03;;;23.60;96.70;;;;;;4955963;28;20066;-75
2021/09/15 07:53:51;;;;;;;6.43;4.07;;;23.80;96.70;;;;;;4963588;28;20478;-75
2021/09/15 07:56:20;;;;;;;9.57;3.97;;;23.90;96.70;;;;;;4980228;28;20051;-75
2021/09/15 07:58:47;;;;;;;6.57;4.20;;;23.90;96.70;;;;;;4964971;28;20044;-75
2021/09/15 08:01:16;;;;;;;7.18;4.60;;;24.00;96.70;;;;;;4966800;28;20050;-75
2021/09/15 08:03:45;;;;;;;7.50;4.45;;;24.00;96.70;;;;;;4966660;28;22585;-75
2021/09/15 08:06:14;;;;;;;8.82;5.18;;;24.10;96.70;;;;;;5001086;28;20055;-75
2021/09/15 08:08:41;;;;;;;6.85;4.68;;;24.10;96.70;;;;;;4965781;28;20043;-75
2021/09/15 08:11:09;;;;;;;7.85;4.78;;;24.20;96.70;;;;;;4960006;28;20201;-75
2021/09/15 08:13:37;;;;;;;7.30;4.72;;;24.30;96.70;;;;;;4959461;28;20050;-75
2021/09/15 08:16:07;;;;;;;6.93;4.25;;;24.30;96.70;;;;;;4963705;28;20145;-75
2021/09/15 08:18:35;;;;;;;7.95;4.68;;;24.40;96.70;;;;;;4961377;28;20102;-75
2021/09/15 08:21:06;;;;;;;10.55;4.50;;;24.40;96.70;;;;;;4964072;28;20509;-75
2021/09/15 08:23:34;;;;;;;6.18;4.07;;;24.40;96.70;;;;;;4958400;28;20595;-75
2021/09/15 08:26:02;;;;;;;8.30;4.10;;;24.40;96.70;;;;;;4959506;28;20051;-75
2021/09/15 08:28:36;;;;;;;13.15;4.32;;;24.50;96.70;;;;;;4963124;28;20125;-75
2021/09/15 08:31:04;;;;;;;8.07;4.22;;;24.50;96.70;;;;;;4961043;28;20043;-75
2021/09/15 08:33:32;;;;;;;6.75;4.00;;;24.40;96.70;;;;;;4970269;28;20575;-75
2021/09/15 08:36:00;;;;;;;4.55;3.80;;;24.50;96.70;;;;;;4965509;28;20049;-75
2021/09/15 08:38:29;;;;;;;4.78;3.30;;;24.60;96.70;;;;;;4964649;28;20042;-75
2021/09/15 08:40:58;;;;;;;7.00;3.60;;;24.60;96.70;;;;;;4964955;28;20050;-75
2021/09/15 08:43:26;;;;;;;4.90;3.35;;;24.60;96.70;;;;;;4961601;28;20453;-75
2021/09/15 08:45:57;;;;;;;5.25;3.50;;;24.70;96.70;;;;;;4964115;28;20050;-75
2021/09/15 08:48:25;;;;;;;5.72;3.92;;;24.70;96.70;;;;;;4963652;28;20081;-75
2021/09/15 08:50:54;;;;;;;6.47;3.58;;;24.80;96.70;;;;;;4944913;28;20054;-75
2021/09/15 08:53:22;;;;;;;7.43;3.90;;;24.80;96.70;;;;;;4954883;28;20137;-75
2021/09/15 08:55:51;;;;;;;8.63;4.32;;;24.90;96.70;;;;;;4960038;28;20065;-75
2021/09/15 08:58:20;;;;;;;9.18;4.45;;;24.90;96.70;;;;;;4961738;28;20089;-75
2021/09/15 09:00:48;;;;;;;7.20;3.90;;;24.90;96.70;;;;;;4964995;28;20568;-75
2021/09/15 09:03:16;;;;;;;8.10;4.05;;;24.90;96.70;;;;;;4957129;28;20390;-75
2021/09/15 09:05:44;;;;;;;5.75;3.92;;;24.90;96.70;;;;;;4962254;28;20035;-74
2021/09/15 09:08:25;;;;;;;10.27;4.47;;;25.10;96.70;;;;;;4962996;28;20130;-75
2021/09/15 09:10:57;;;;;;;9.52;4.47;;;25.20;96.70;;;;;;4943491;28;20062;-75
2021/09/15 09:13:25;;;;;;;13.05;5.10;;;25.40;96.70;;;;;;4963637;28;20047;-75
2021/09/15 09:15:53;;;;;;;14.32;5.00;;;25.50;96.70;;;;;;4960193;28;20047;-75
2021/09/15 09:18:21;;;;;;;8.18;4.25;;;25.50;96.70;;;;;;4964048;28;20050;-75
2021/09/15 09:20:49;;;;;;;7.00;4.03;;;25.60;96.70;;;;;;4960605;28;20071;-75
2021/09/15 09:23:39;;;;;;;7.50;4.05;;;25.70;96.70;;;;;;4963233;28;20047;-75
2021/09/15 09:26:08;;;;;;;5.90;3.53;;;25.80;96.70;;;;;;4958733;28;20531;-75
2021/09/15 09:28:40;;;;;;;5.68;3.38;;;25.90;96.70;;;;;;4959091;28;20505;-75
2021/09/15 09:31:11;;;;;;;6.60;4.07;;;26.00;96.70;;;;;;4960410;28;20105;-75
2021/09/15 09:33:45;;;;;;;7.03;3.92;;;26.10;96.70;;;;;;4959287;28;20120;-75
2021/09/15 09:36:13;;;;;;;6.22;3.90;;;26.20;96.70;;;;;;4958693;28;20415;-75
2021/09/15 09:38:44;;;;;;;9.07;3.75;;;26.30;96.70;;;;;;4967241;28;20417;-75
2021/09/15 09:41:20;;;;;;;7.28;4.20;;;26.30;96.70;;;;;;4960233;28;20043;-75
2021/09/15 09:43:55;;;;;;;6.18;3.38;;;26.30;96.70;;;;;;4973662;28;20050;-75
2021/09/15 09:46:33;;;;;;;6.22;4.40;;;26.20;96.70;;;;;;4946890;28;20134;-75
2021/09/15 09:49:11;;;;;;;6.18;3.80;;;26.20;96.70;;;;;;4961274;28;20047;-75
2021/09/15 09:51:45;;;;;;;8.65;4.35;;;26.30;96.70;;;;;;4955740;28;20078;-75
2021/09/15 09:54:25;;;;;;;6.47;4.03;;;26.50;96.70;;;;;;4959997;28;20479;-74
2021/09/15 09:56:58;;;;;;;6.28;4.30;;;26.50;96.70;;;;;;4961299;28;20123;-75
2021/09/15 09:59:26;;;;;;;5.60;3.85;;;26.70;96.70;;;;;;4975445;28;20043;-75
2021/09/15 10:01:56;;;;;;;7.18;4.00;;;26.80;96.70;;;;;;4964573;28;20046;-75
2021/09/15 10:04:27;;;;;;;5.78;4.20;;;26.80;96.70;;;;;;4945214;28;20138;-75
2021/09/15 10:06:56;;;;;;;6.40;3.90;;;27.00;96.70;;;;;;4972406;28;20073;-75
2021/09/15 10:09:25;;;;;;;8.77;3.90;;;27.10;96.70;;;;;;4954290;28;20054;-75
2021/09/15 10:11:57;;;;;;;6.72;3.88;;;27.20;96.70;;;;;;4958339;28;20418;-75
2021/09/15 10:14:26;;;;;;;8.05;4.10;;;27.10;96.70;;;;;;4958408;28;20412;-75
2021/09/15 10:17:00;;;;;;;8.10;4.57;;;27.00;96.70;;;;;;4959930;28;20048;-75
2021/09/15 10:19:33;;;;;;;8.27;4.07;;;26.90;96.70;;;;;;4963514;28;20564;-75
2021/09/15 10:22:04;;;;;;;5.95;3.83;;;26.90;96.70;;;;;;4960803;28;20059;-75
2021/09/15 10:24:54;;;;;;;6.20;3.63;;;26.90;96.70;;;;;;4957390;28;20093;-75
2021/09/15 10:27:25;;;;;;;9.32;3.90;;;27.00;96.70;;;;;;4959638;28;20161;-75
2021/09/15 10:30:07;;;;;;;5.32;3.63;;;27.20;96.70;;;;;;4936909;28;20062;-75
2021/09/15 10:32:37;;;;;;;6.63;3.33;;;27.50;96.70;;;;;;4960655;28;20035;-75
2021/09/15 10:35:06;;;;;;;5.03;3.88;;;27.60;96.70;;;;;;4957816;28;20134;-75
2021/09/15 10:37:48;;;;;;;4.07;3.20;;;27.60;96.70;;;;;;4970203;28;20051;-75
2021/09/15 10:40:37;;;;;;;4.30;3.42;;;27.70;96.70;;;;;;4967515;28;20059;-76
2021/09/15 10:43:47;;;;;;;5.50;3.60;;;27.80;96.50;;;;;;4960222;28;20043;-75
2021/09/15 10:46:33;;;;;;;5.97;3.40;;;27.80;96.60;;;;;;4965770;28;20043;-75
2021/09/15 10:49:32;;;;;;;6.03;3.42;;;27.70;96.60;;;;;;4966682;28;20077;-75
2021/09/15 10:52:37;;;;;;;4.82;3.50;;;27.90;96.60;;;;;;4962127;28;20115;-75
2021/09/15 10:55:17;;;;;;;5.32;3.58;;;28.00;96.20;;;;;;4962993;28;20063;-75
2021/09/15 10:57:46;;;;;;;5.32;3.58;;;28.20;96.40;;;;;;4946883;28;20425;-75
2021/09/15 11:00:26;;;;;;;5.70;3.60;;;28.10;95.90;;;;;;4960814;28;20179;-75
2021/09/15 11:02:56;;;;;;;6.07;3.78;;;28.30;95.40;;;;;;4960297;28;20046;-75
2021/09/15 11:05:43;;;;;;;9.52;3.90;;;28.40;95.70;;;;;;4945091;28;20058;-76
2021/09/15 11:08:36;;;;;;;5.85;3.95;;;28.40;95.90;;;;;;4950247;28;20476;-75
2021/09/15 11:11:06;;;;;;;7.20;3.92;;;28.20;95.80;;;;;;4962745;28;20062;-75
2021/09/15 11:13:49;;;;;;;5.47;3.67;;;28.10;96.10;;;;;;4961012;28;20047;-75
2021/09/15 11:16:31;;;;;;;5.85;3.47;;;28.00;96.60;;;;;;4946074;28;20722;-75
2021/09/15 11:19:02;;;;;;;6.57;3.72;;;28.00;96.70;;;;;;4964255;28;20035;-75
2021/09/15 11:21:32;;;;;;;6.68;3.38;;;27.90;96.70;;;;;;4964580;28;20129;-75
2021/09/15 11:24:09;;;;;;;6.30;4.05;;;27.80;96.70;;;;;;4960497;28;20051;-75
2021/09/15 11:26:43;;;;;;;6.20;4.00;;;27.80;96.70;;;;;;4964600;28;20121;-75
2021/09/15 11:29:12;;;;;;;6.25;3.65;;;27.80;96.70;;;;;;4965561;28;20394;-75
2021/09/15 11:31:42;;;;;;;4.38;3.70;;;27.80;96.70;;;;;;4960181;28;20041;-75
2021/09/15 11:34:12;;;;;;;5.05;3.60;;;27.80;96.70;;;;;;4963558;28;20038;-75
2021/09/15 11:36:48;;;;;;;5.03;3.40;;;27.90;96.70;;;;;;4959313;28;20146;-75
2021/09/15 11:39:18;;;;;;;6.93;3.42;;;27.90;96.70;;;;;;4963494;28;20412;-75
2021/09/15 11:41:46;;;;;;;4.03;3.63;;;28.00;96.70;;;;;;4966455;28;20446;-75
2021/09/15 11:44:15;;;;;;;4.35;3.35;;;28.00;96.70;;;;;;4965107;28;20038;-75
2021/09/15 11:46:45;;;;;;;8.82;4.18;;;27.90;96.70;;;;;;4967298;28;20122;-75
2021/09/15 11:49:13;;;;;;;3.72;3.42;;;27.80;96.70;;;;;;4964797;28;20051;-75
2021/09/15 11:51:42;;;;;;;6.03;3.72;;;27.80;96.70;;;;;;4967576;28;20066;-75
2021/09/15 11:54:16;;;;;;;5.63;3.47;;;27.80;96.70;;;;;;4964359;28;20567;-75
2021/09/15 11:56:51;;;;;;;3.63;3.30;;;27.70;96.70;;;;;;4965983;28;20110;-75
2021/09/15 11:59:21;;;;;;;6.13;3.50;;;27.60;96.70;;;;;;4963465;28;20126;-75
2021/09/15 12:02:09;;;;;;;6.35;3.53;;;27.60;96.70;;;;;;4979302;28;20154;-75
2021/09/15 12:04:40;;;;;;;8.13;3.60;;;27.60;96.70;;;;;;4963143;28;20075;-75
2021/09/15 12:07:09;;;;;;;5.25;3.75;;;27.50;96.70;;;;;;4962452;28;20057;-75
2021/09/15 12:09:38;;;;;;;5.43;3.25;;;27.60;96.70;;;;;;4962493;28;20035;-75
2021/09/15 12:12:08;;;;;;;3.75;3.30;;;27.50;96.70;;;;;;4962738;28;20049;-75
2021/09/15 12:14:36;;;;;;;8.63;3.97;;;27.50;96.70;;;;;;4964257;28;20416;-75
2021/09/15 12:17:06;;;;;;;6.75;3.22;;;27.50;96.70;;;;;;4964104;28;20066;-75
2021/09/15 12:19:36;;;;;;;5.90;3.55;;;27.50;96.70;;;;;;4952283;28;20144;-75
2021/09/15 12:22:05;;;;;;;4.68;3.10;;;27.50;96.70;;;;;;4967081;28;20039;-75
2021/09/15 12:24:33;;;;;;;3.75;3.45;;;27.50;96.70;;;;;;4966640;28;20043;-75
2021/09/15 12:27:14;;;;;;;5.13;3.33;;;27.30;96.70;;;;;;4961722;28;20049;-75
2021/09/15 12:29:42;;;;;;;4.05;3.33;;;27.20;96.70;;;;;;4943873;28;20051;-75
2021/09/15 12:32:13;;;;;;;5.05;3.58;;;27.10;96.70;;;;;;4961587;28;20058;-75
2021/09/15 12:34:43;;;;;;;5.88;3.45;;;27.10;96.70;;;;;;4965932;28;20110;-75
2021/09/15 12:37:14;;;;;;;4.85;3.80;;;27.10;96.70;;;;;;4963973;28;20543;-75
2021/09/15 12:39:47;;;;;;;5.82;3.75;;;27.10;96.70;;;;;;4958433;28;20501;-74
2021/09/15 12:42:16;;;;;;;5.93;3.25;;;27.10;96.70;;;;;;4961429;28;20138;-75
2021/09/15 12:44:45;;;;;;;6.10;3.45;;;27.40;96.70;;;;;;4964404;28;20046;-75
2021/09/15 12:47:15;;;;;;;5.55;3.38;;;27.60;96.70;;;;;;4944732;28;20077;-75
2021/09/15 12:49:43;;;;;;;4.25;3.10;;;27.70;96.70;;;;;;4957515;28;20118;-75
2021/09/15 12:52:18;;;;;;;5.47;3.22;;;28.00;96.70;;;;;;4950857;28;20101;-75
2021/09/15 12:54:55;;;;;;;4.38;3.03;;;28.40;96.70;;;;;;4962363;28;20067;-75
2021/09/15 12:57:26;;;;;;;3.47;3.17;;;28.50;96.70;;;;;;4963120;28;20497;-75
2021/09/15 13:00:15;;;;;;;5.32;3.20;;;28.60;96.70;;;;;;4963518;28;20062;-75
2021/09/15 13:02:53;;;;;;;6.30;3.30;;;28.70;96.70;;;;;;4960032;28;20045;-75
2021/09/15 13:05:22;;;;;;;4.47;3.55;;;28.80;96.70;;;;;;4959504;28;20101;-75
2021/09/15 13:07:53;;;;;;;4.75;3.38;;;28.90;96.70;;;;;;4970869;28;20042;-75
2021/09/15 13:10:22;;;;;;;5.55;3.10;;;29.10;96.70;;;;;;4962007;28;20422;-75
2021/09/15 13:12:50;;;;;;;6.70;4.00;;;29.00;96.70;;;;;;4963093;28;20042;-75
2021/09/15 13:15:18;;;;;;;3.53;3.22;;;29.00;96.70;;;;;;4965390;28;20043;-75
2021/09/15 13:17:47;;;;;;;6.70;3.10;;;29.10;96.70;;;;;;4960151;28;20104;-75
2021/09/15 13:20:17;;;;;;;4.50;3.28;;;29.10;96.70;;;;;;4958579;28;20133;-75
2021/09/15 13:22:46;;;;;;;4.20;3.80;;;29.20;96.70;;;;;;4960998;28;20449;-75
2021/09/15 13:25:15;;;;;;;3.83;3.05;;;29.40;96.70;;;;;;4958633;28;20074;-75
2021/09/15 13:27:44;;;;;;;5.25;3.75;;;29.70;96.70;;;;;;4953268;28;20047;-75
2021/09/15 13:30:13;;;;;;;5.63;3.53;;;29.90;96.70;;;;;;4963974;28;20043;-75
2021/09/15 13:32:41;;;;;;;6.03;3.65;;;29.80;96.70;;;;;;4967226;28;20090;-75
2021/09/15 13:35:10;;;;;;;4.18;3.50;;;29.70;96.60;;;;;;4962744;28;20045;-75